Aérodrome :
LOGIN :

S'inscrire | Disclaimer

   EN    FR    IT 

 










Légende :    VFR   VFR Marginal   IFR   IFR Intensif   IFR Très Intensif
Visi : 
Plafond : 
>= 8 km
>= 3000ft
5 à 8 km
1000 à 3000 ft
1500m à 5 km
500 à 1000 ft
800 à 1500m
200 à 500 ft
< 800m
< 200 ft
Symboles :   Orages  Brouillard  Fortes neiges  Fortes précipitations  Vent > 20 kt
SIGMETs :   Divers  Orages  Givrage  Turbulence  Onde Orograph.  Cendres Volcan.







- Altitude de l'aérodrome : 1058 ft
- Code IATA : SCN


EDDR - Saarbrücken

DERNIER METAR :
  • 200131Z 27002KT CAVOK 11/10 Q1023

METARs EXPIRÉS :
  • 200120Z AUTO 28002KT 9999 // BKN090/// 11/10 Q1023
  • 200050Z AUTO 27002KT 9999 // BKN070/// BKN095/// 12/11 Q1023
  • 200020Z AUTO 27002KT 9999 // BKN070/// BKN095/// 12/11 Q1023
  • 192350Z AUTO 25003KT 9999 // OVC090/// 12/11 Q1023
  • 192320Z AUTO 23003KT 9999 // SCT075/// BKN090/// 11/11 Q1023
  • 192250Z AUTO 21003KT 9999 // FEW070/// SCT090/// 11/11 Q1023

TAF TAF EDDR
Valide du 20 à 00h jusqu'au 21 à 00h UTC


192300Z 2000/2024 25004KT CAVOK
BECMG 2008/2012 27009KT
BECMG 2019/2021 VRB03KT
Pas de NOTAMs connus pour ce terrain.



MET'MAP, la Météo Aéronautique d'un coup d'oeil ! - Copyright ORBIFLY Décembre 2007 - Disclaimer

ORBIFLY MET'MAP TEAM :

Programmation & Développement : Alexandra Zaïnal
Conception & Développement : Baudouin d'Aumeries
Co-Programmation & Développement : Marc-Olivier Méhu
Soutien technique & logistique : Manuel Goepfert

Contact : metmap@orbifly.com




SOURCES & CREDITS :

   NOAA